Time;durP1;ratioP1;P1;durP2;ratioP2;P2;SDS_P1;SDS_P2;PMS_P1;PMS_P2;Temp;Humidity;BMP_temperature;BMP_pressure;BME280_temperature;BME280_humidity;BME280_pressure;Samples;Min_cycle;Max_cycle;Signal;HPM_P1;HPM_P2
2020/12/15 00:02:02;;;;;;;8.77;5.43;;;;;;;;;;4974045;28;20050;-66
2020/12/15 00:04:28;;;;;;;7.15;4.82;;;;;;;;;;4974475;28;20560;-66
2020/12/15 00:06:55;;;;;;;10.27;5.50;;;;;;;;;;4974431;28;20050;-66
2020/12/15 00:09:21;;;;;;;7.72;4.82;;;;;;;;;;4954877;28;20051;-66
2020/12/15 00:11:47;;;;;;;8.23;5.45;;;;;;;;;;4942691;28;20038;-66
2020/12/15 00:14:13;;;;;;;6.68;4.75;;;;;;;;;;4974317;28;20054;-66
2020/12/15 00:16:39;;;;;;;7.38;5.28;;;;;;;;;;4990920;28;20059;-66
2020/12/15 00:19:06;;;;;;;7.65;4.95;;;;;;;;;;4974965;28;20054;-66
2020/12/15 00:21:32;;;;;;;7.40;5.10;;;;;;;;;;4958217;28;20056;-66
2020/12/15 00:24:11;;;;;;;8.63;5.00;;;;;;;;;;4970206;28;20054;-66
2020/12/15 00:26:38;;;;;;;9.20;5.63;;;;;;;;;;4965319;28;20050;-66
2020/12/15 00:29:25;;;;;;;10.98;6.18;;;;;;;;;;4956612;28;20093;-65
2020/12/15 00:31:52;;;;;;;11.70;6.75;;;;;;;;;;4971372;28;20046;-66
2020/12/15 00:34:18;;;;;;;8.90;5.85;;;;;;;;;;4973819;28;20086;-66
2020/12/15 00:36:44;;;;;;;7.03;4.90;;;;;;;;;;4977409;28;20496;-66
2020/12/15 00:39:10;;;;;;;7.40;5.20;;;;;;;;;;4978016;28;20489;-66
2020/12/15 00:41:37;;;;;;;7.20;5.22;;;;;;;;;;4977210;28;20046;-66
2020/12/15 00:44:04;;;;;;;7.20;4.95;;;;;;;;;;4977883;28;20049;-66
2020/12/15 00:46:30;;;;;;;8.70;5.20;;;;;;;;;;4976411;28;20046;-66
2020/12/15 00:48:56;;;;;;;7.30;4.78;;;;;;;;;;4977456;28;20104;-66
2020/12/15 00:51:22;;;;;;;7.63;5.32;;;;;;;;;;4977690;28;20481;-66
2020/12/15 00:53:49;;;;;;;9.13;5.13;;;;;;;;;;4977506;28;20070;-66
2020/12/15 00:56:15;;;;;;;7.65;5.57;;;;;;;;;;4976845;28;20058;-65
2020/12/15 00:58:42;;;;;;;7.95;5.45;;;;;;;;;;4977531;28;20046;-65
2020/12/15 01:01:09;;;;;;;10.25;6.07;;;;;;;;;;4977205;28;20472;-65
2020/12/15 01:03:36;;;;;;;8.27;5.57;;;;;;;;;;4976862;28;20100;-66
2020/12/15 01:06:04;;;;;;;7.82;5.22;;;;;;;;;;4976965;28;20088;-66
2020/12/15 01:08:30;;;;;;;8.55;5.80;;;;;;;;;;4976607;28;20054;-66
2020/12/15 01:11:09;;;;;;;7.30;4.97;;;;;;;;;;4979269;28;20057;-65
2020/12/15 01:13:35;;;;;;;9.32;5.40;;;;;;;;;;4977000;28;20042;-65
2020/12/15 01:16:05;;;;;;;10.40;5.50;;;;;;;;;;4976602;28;20058;-66
2020/12/15 01:18:34;;;;;;;7.60;5.15;;;;;;;;;;4977149;28;20047;-66
2020/12/15 01:21:04;;;;;;;7.18;4.97;;;;;;;;;;4977175;28;20042;-66
2020/12/15 01:23:30;;;;;;;6.93;5.25;;;;;;;;;;4976611;28;20054;-66
2020/12/15 01:25:57;;;;;;;8.73;6.13;;;;;;;;;;4975841;28;20046;-66
2020/12/15 01:28:23;;;;;;;7.63;5.15;;;;;;;;;;4977602;28;20061;-66
2020/12/15 01:30:49;;;;;;;7.53;5.57;;;;;;;;;;4976477;28;20481;-66
2020/12/15 01:33:16;;;;;;;9.38;4.75;;;;;;;;;;4976751;28;20066;-66
2020/12/15 01:35:42;;;;;;;7.28;5.10;;;;;;;;;;4975424;28;20366;-66
2020/12/15 01:38:08;;;;;;;6.85;5.03;;;;;;;;;;4977183;28;20046;-66
2020/12/15 01:40:34;;;;;;;9.18;5.65;;;;;;;;;;4976785;28;20053;-66
2020/12/15 01:43:01;;;;;;;10.88;6.03;;;;;;;;;;4976517;28;20058;-66
2020/12/15 01:45:28;;;;;;;7.70;5.05;;;;;;;;;;4960150;28;20394;-66
2020/12/15 01:47:54;;;;;;;7.45;5.43;;;;;;;;;;4976432;28;20448;-65
2020/12/15 01:50:20;;;;;;;9.50;5.97;;;;;;;;;;4976683;28;20061;-65
2020/12/15 01:52:47;;;;;;;7.35;5.05;;;;;;;;;;4960436;28;20050;-66
2020/12/15 01:55:15;;;;;;;7.78;5.07;;;;;;;;;;4975914;28;20046;-66
2020/12/15 01:57:43;;;;;;;9.10;5.32;;;;;;;;;;4976366;28;20064;-66
2020/12/15 02:00:09;;;;;;;9.75;5.65;;;;;;;;;;4944975;28;20397;-66
2020/12/15 02:02:35;;;;;;;6.20;4.60;;;;;;;;;;4975797;28;20053;-66
2020/12/15 02:05:01;;;;;;;7.80;4.72;;;;;;;;;;4976053;28;20058;-66
2020/12/15 02:07:27;;;;;;;8.52;5.13;;;;;;;;;;4975620;28;20046;-66
2020/12/15 02:09:54;;;;;;;7.45;5.07;;;;;;;;;;4956474;28;20190;-66
2020/12/15 02:12:20;;;;;;;7.18;5.03;;;;;;;;;;4965078;28;20053;-66
2020/12/15 02:14:46;;;;;;;7.07;4.82;;;;;;;;;;4976124;28;20050;-66
2020/12/15 02:17:13;;;;;;;7.35;5.18;;;;;;;;;;4975786;28;20077;-65
2020/12/15 02:19:39;;;;;;;7.13;4.82;;;;;;;;;;4975642;28;20061;-66
2020/12/15 02:22:07;;;;;;;7.30;4.75;;;;;;;;;;4976051;28;20050;-66
2020/12/15 02:24:33;;;;;;;7.38;4.80;;;;;;;;;;4975483;28;20500;-66
2020/12/15 02:26:59;;;;;;;6.63;4.72;;;;;;;;;;4975532;28;20050;-66
2020/12/15 02:29:25;;;;;;;6.88;4.88;;;;;;;;;;4943879;28;20508;-66
2020/12/15 02:31:52;;;;;;;7.60;5.55;;;;;;;;;;4975807;28;20053;-66
2020/12/15 02:34:18;;;;;;;7.30;5.35;;;;;;;;;;4975103;28;21806;-66
2020/12/15 02:36:44;;;;;;;7.50;4.90;;;;;;;;;;4974784;28;20050;-66
2020/12/15 02:39:14;;;;;;;6.88;4.85;;;;;;;;;;4975745;28;20523;-66
2020/12/15 02:41:52;;;;;;;7.10;4.78;;;;;;;;;;4976457;28;20410;-65
2020/12/15 02:44:18;;;;;;;8.88;5.43;;;;;;;;;;4975121;28;20058;-66
2020/12/15 02:46:44;;;;;;;7.50;5.05;;;;;;;;;;4979006;28;20050;-65
2020/12/15 02:49:11;;;;;;;6.43;4.53;;;;;;;;;;4984700;28;20610;-65
2020/12/15 02:51:38;;;;;;;7.10;5.15;;;;;;;;;;4951024;28;20057;-65
2020/12/15 02:54:04;;;;;;;6.53;4.50;;;;;;;;;;4983924;28;20073;-65
2020/12/15 02:56:30;;;;;;;6.80;4.85;;;;;;;;;;4975850;28;20054;-66
2020/12/15 02:58:56;;;;;;;6.95;4.50;;;;;;;;;;4975673;28;20061;-66
2020/12/15 03:01:22;;;;;;;7.35;4.65;;;;;;;;;;4975376;28;20060;-66
2020/12/15 03:03:49;;;;;;;5.57;4.32;;;;;;;;;;4975047;28;20065;-66
2020/12/15 03:06:15;;;;;;;7.10;4.38;;;;;;;;;;4974502;28;20050;-66
2020/12/15 03:08:41;;;;;;;6.45;4.63;;;;;;;;;;4958673;28;20050;-66
2020/12/15 03:11:07;;;;;;;5.70;4.32;;;;;;;;;;4975392;28;20061;-66
2020/12/15 03:13:34;;;;;;;7.93;4.72;;;;;;;;;;4974252;28;20807;-66
2020/12/15 03:16:00;;;;;;;7.00;4.07;;;;;;;;;;4955470;28;20051;-66
2020/12/15 03:18:28;;;;;;;6.15;4.40;;;;;;;;;;4956113;28;20054;-65
2020/12/15 03:27:14;;;;;;;5.68;4.28;;;;;;;;;;4950669;29;20055;-66
2020/12/15 03:29:40;;;;;;;6.50;4.80;;;;;;;;;;4952278;29;20051;-66
2020/12/15 03:32:06;;;;;;;7.22;4.65;;;;;;;;;;4952874;29;20047;-65
2020/12/15 03:34:32;;;;;;;8.13;5.15;;;;;;;;;;4951964;29;20059;-66
2020/12/15 03:36:59;;;;;;;8.20;4.88;;;;;;;;;;4950449;29;20069;-66
2020/12/15 03:39:25;;;;;;;7.18;4.90;;;;;;;;;;4952387;29;20055;-66
2020/12/15 03:41:54;;;;;;;9.35;5.05;;;;;;;;;;4936356;29;20059;-65
2020/12/15 03:44:25;;;;;;;8.23;4.80;;;;;;;;;;4952035;29;20054;-66
2020/12/15 03:46:51;;;;;;;9.40;5.75;;;;;;;;;;4951553;29;20092;-66
2020/12/15 03:49:17;;;;;;;6.93;4.88;;;;;;;;;;4952514;29;20055;-66
2020/12/15 03:51:43;;;;;;;7.47;4.55;;;;;;;;;;4952260;29;20062;-66
2020/12/15 03:54:09;;;;;;;6.30;4.63;;;;;;;;;;4936251;29;20051;-65
2020/12/15 03:56:36;;;;;;;7.47;4.50;;;;;;;;;;4951263;29;20052;-66
2020/12/15 03:59:02;;;;;;;8.68;5.47;;;;;;;;;;4954850;28;20047;-65
2020/12/15 04:01:28;;;;;;;6.05;4.60;;;;;;;;;;4956537;29;20062;-66
2020/12/15 04:03:55;;;;;;;5.82;4.72;;;;;;;;;;4956095;29;20158;-66
2020/12/15 04:06:21;;;;;;;5.32;3.88;;;;;;;;;;4939483;29;20055;-66
2020/12/15 04:08:47;;;;;;;6.15;4.38;;;;;;;;;;4955962;29;20074;-65
2020/12/15 04:11:13;;;;;;;9.40;5.15;;;;;;;;;;4955818;29;20051;-66
2020/12/15 04:13:39;;;;;;;9.75;5.05;;;;;;;;;;4955184;29;20065;-66
2020/12/15 04:16:06;;;;;;;8.57;5.10;;;;;;;;;;4954817;29;20091;-66
2020/12/15 04:18:32;;;;;;;7.50;5.30;;;;;;;;;;4955583;29;20504;-66
2020/12/15 04:20:58;;;;;;;9.07;5.53;;;;;;;;;;4955656;29;20498;-66
2020/12/15 04:23:26;;;;;;;8.98;5.97;;;;;;;;;;4955332;29;20059;-66
2020/12/15 04:25:54;;;;;;;8.95;6.70;;;;;;;;;;4942604;29;20210;-66
2020/12/15 04:28:20;;;;;;;9.20;6.57;;;;;;;;;;4939293;29;20062;-66
2020/12/15 04:30:47;;;;;;;10.20;6.60;;;;;;;;;;4955341;29;20087;-66
2020/12/15 04:33:14;;;;;;;10.70;7.18;;;;;;;;;;4955544;29;20055;-66
2020/12/15 04:35:40;;;;;;;9.95;6.75;;;;;;;;;;4954288;29;20059;-66
2020/12/15 04:38:06;;;;;;;11.40;6.97;;;;;;;;;;4955178;29;20486;-66
2020/12/15 04:40:34;;;;;;;9.50;6.40;;;;;;;;;;4954835;29;20529;-66
2020/12/15 04:43:07;;;;;;;12.55;7.22;;;;;;;;;;4940337;29;20413;-66
2020/12/15 04:45:36;;;;;;;11.68;6.97;;;;;;;;;;4953841;29;20043;-66
2020/12/15 04:48:05;;;;;;;10.93;7.60;;;;;;;;;;4946975;29;20098;-66
2020/12/15 04:50:33;;;;;;;8.63;6.68;;;;;;;;;;4955019;29;20506;-66
2020/12/15 04:53:10;;;;;;;9.35;6.57;;;;;;;;;;4955169;29;20410;-66
2020/12/15 04:55:37;;;;;;;9.02;6.25;;;;;;;;;;4954113;29;20050;-66
2020/12/15 04:58:04;;;;;;;10.07;6.53;;;;;;;;;;4954789;29;20055;-66
2020/12/15 05:00:31;;;;;;;8.27;5.72;;;;;;;;;;4954926;29;20062;-66
2020/12/15 05:03:01;;;;;;;8.32;5.88;;;;;;;;;;4955126;29;20055;-66
2020/12/15 05:05:27;;;;;;;9.07;6.15;;;;;;;;;;4953234;29;20055;-66
2020/12/15 05:07:54;;;;;;;8.73;6.18;;;;;;;;;;4954662;29;20047;-65
2020/12/15 05:10:20;;;;;;;9.23;5.85;;;;;;;;;;4954495;28;20061;-66
2020/12/15 05:12:47;;;;;;;11.45;6.38;;;;;;;;;;4954647;29;20059;-66
2020/12/15 05:15:18;;;;;;;10.18;7.32;;;;;;;;;;4953961;29;20395;-66
2020/12/15 05:17:45;;;;;;;13.05;7.70;;;;;;;;;;4954637;29;20082;-66
2020/12/15 05:20:32;;;;;;;12.38;7.90;;;;;;;;;;4954295;29;20052;-66
2020/12/15 05:22:58;;;;;;;11.02;7.28;;;;;;;;;;4953953;29;20058;-65
2020/12/15 05:25:32;;;;;;;7.47;5.88;;;;;;;;;;4952936;29;20047;-66
2020/12/15 05:28:00;;;;;;;9.25;6.25;;;;;;;;;;4954583;29;20494;-65
2020/12/15 05:30:29;;;;;;;7.63;5.72;;;;;;;;;;4953898;29;20055;-66
2020/12/15 05:32:56;;;;;;;7.90;6.18;;;;;;;;;;4954280;29;20056;-66
2020/12/15 05:35:25;;;;;;;7.55;5.75;;;;;;;;;;4953072;29;20059;-66
2020/12/15 05:37:51;;;;;;;8.40;5.35;;;;;;;;;;4954105;29;20043;-66
2020/12/15 05:40:17;;;;;;;7.57;4.65;;;;;;;;;;4953783;29;20059;-66
2020/12/15 05:42:51;;;;;;;7.15;5.05;;;;;;;;;;4954515;29;20074;-65
2020/12/15 05:45:21;;;;;;;6.30;4.90;;;;;;;;;;4953245;29;20055;-66
2020/12/15 05:47:48;;;;;;;7.60;4.95;;;;;;;;;;4954083;29;20047;-65
2020/12/15 05:50:22;;;;;;;9.23;5.50;;;;;;;;;;4953666;29;20047;-66
2020/12/15 05:52:54;;;;;;;6.90;5.07;;;;;;;;;;4954020;29;20048;-66
2020/12/15 05:55:21;;;;;;;7.97;5.13;;;;;;;;;;4952664;29;20051;-66
2020/12/15 05:57:47;;;;;;;7.30;4.95;;;;;;;;;;4953785;29;20307;-66
2020/12/15 06:00:14;;;;;;;5.93;4.30;;;;;;;;;;4953774;29;20521;-66
2020/12/15 06:02:41;;;;;;;7.18;4.60;;;;;;;;;;4953784;29;20051;-65
2020/12/15 06:05:07;;;;;;;5.25;4.15;;;;;;;;;;4953491;29;20538;-66
2020/12/15 06:07:34;;;;;;;7.18;4.70;;;;;;;;;;4952974;29;20051;-66
2020/12/15 06:10:01;;;;;;;5.20;4.30;;;;;;;;;;4953246;29;20055;-65
2020/12/15 06:12:27;;;;;;;7.03;4.18;;;;;;;;;;4953437;29;20051;-65
2020/12/15 06:14:54;;;;;;;9.70;4.97;;;;;;;;;;4953750;29;20057;-65
2020/12/15 06:17:21;;;;;;;9.00;5.03;;;;;;;;;;4952706;29;20051;-66
2020/12/15 06:19:52;;;;;;;7.75;4.55;;;;;;;;;;4953682;29;20098;-66
2020/12/15 06:22:21;;;;;;;8.77;4.82;;;;;;;;;;4953597;28;20466;-66
2020/12/15 06:24:59;;;;;;;8.70;5.10;;;;;;;;;;4953561;29;20057;-66
2020/12/15 06:27:36;;;;;;;6.20;4.40;;;;;;;;;;4953761;29;20052;-65
2020/12/15 06:30:07;;;;;;;7.47;4.80;;;;;;;;;;4952736;29;20053;-65
2020/12/15 06:32:35;;;;;;;6.90;4.30;;;;;;;;;;4961880;29;20410;-65
2020/12/15 06:35:11;;;;;;;6.43;4.45;;;;;;;;;;4945753;29;20047;-65
2020/12/15 06:37:41;;;;;;;7.72;5.18;;;;;;;;;;4964937;29;20051;-65
2020/12/15 06:40:07;;;;;;;6.57;4.35;;;;;;;;;;4943392;29;20063;-66
2020/12/15 06:42:35;;;;;;;5.68;4.05;;;;;;;;;;4937380;29;20051;-66
2020/12/15 06:45:10;;;;;;;7.40;4.60;;;;;;;;;;4936743;29;20474;-66
2020/12/15 06:47:37;;;;;;;8.18;4.95;;;;;;;;;;4951921;29;20051;-66
2020/12/15 06:50:12;;;;;;;7.75;5.00;;;;;;;;;;4952871;29;20090;-66
2020/12/15 06:52:38;;;;;;;7.65;5.05;;;;;;;;;;4952607;29;20058;-65
2020/12/15 06:55:04;;;;;;;9.50;5.15;;;;;;;;;;4952730;29;20053;-66
2020/12/15 06:57:32;;;;;;;9.27;5.93;;;;;;;;;;4952452;29;20175;-66
2020/12/15 06:59:59;;;;;;;8.63;5.95;;;;;;;;;;4952262;29;20055;-66
2020/12/15 07:02:29;;;;;;;6.65;5.18;;;;;;;;;;4952648;29;20051;-66
2020/12/15 07:05:26;;;;;;;5.65;4.30;;;;;;;;;;4952942;29;20051;-66
2020/12/15 07:07:54;;;;;;;6.25;4.38;;;;;;;;;;4953003;29;20110;-66
2020/12/15 07:10:23;;;;;;;6.45;4.55;;;;;;;;;;4952235;29;20057;-66
2020/12/15 07:12:50;;;;;;;7.95;4.68;;;;;;;;;;4952939;29;20077;-66
2020/12/15 07:15:17;;;;;;;7.72;4.40;;;;;;;;;;4952002;29;20054;-66
2020/12/15 07:17:47;;;;;;;8.30;4.95;;;;;;;;;;4952570;29;20043;-66
2020/12/15 07:20:14;;;;;;;5.50;4.30;;;;;;;;;;4952379;29;20055;-66
2020/12/15 07:22:40;;;;;;;5.25;4.05;;;;;;;;;;4952173;29;20410;-66
2020/12/15 07:25:08;;;;;;;7.57;5.00;;;;;;;;;;4952221;29;20059;-66
2020/12/15 07:27:35;;;;;;;7.80;4.43;;;;;;;;;;4952005;29;20486;-66
2020/12/15 07:30:02;;;;;;;6.72;4.43;;;;;;;;;;4952119;29;20052;-66
2020/12/15 07:32:28;;;;;;;10.95;5.28;;;;;;;;;;4951571;29;20051;-66
2020/12/15 07:35:02;;;;;;;7.00;4.43;;;;;;;;;;4951939;29;20228;-66
2020/12/15 07:37:29;;;;;;;8.88;4.97;;;;;;;;;;4950287;29;20051;-66
2020/12/15 07:40:01;;;;;;;9.35;4.78;;;;;;;;;;4949935;29;20099;-67
2020/12/15 07:42:28;;;;;;;8.68;4.78;;;;;;;;;;4950328;29;20063;-68
2020/12/15 07:45:03;;;;;;;6.13;4.55;;;;;;;;;;4950341;29;20047;-68
2020/12/15 07:47:42;;;;;;;6.80;4.40;;;;;;;;;;4949923;29;20079;-68
2020/12/15 07:50:14;;;;;;;6.70;4.07;;;;;;;;;;4950433;29;20474;-70
2020/12/15 07:52:41;;;;;;;7.93;5.28;;;;;;;;;;4934521;29;20059;-68
2020/12/15 07:55:14;;;;;;;8.48;4.72;;;;;;;;;;4950144;29;20511;-69
2020/12/15 07:57:47;;;;;;;11.77;5.13;;;;;;;;;;4950627;29;20415;-67
2020/12/15 08:00:21;;;;;;;10.13;5.38;;;;;;;;;;4950030;29;20047;-68
2020/12/15 08:02:49;;;;;;;17.92;6.03;;;;;;;;;;4950552;29;20062;-68
2020/12/15 08:05:20;;;;;;;13.63;6.03;;;;;;;;;;4949256;29;20063;-67
2020/12/15 08:07:51;;;;;;;11.75;5.47;;;;;;;;;;4950561;29;20052;-67
2020/12/15 08:10:28;;;;;;;10.68;6.20;;;;;;;;;;4950184;29;20601;-69
2020/12/15 08:12:56;;;;;;;37.95;15.80;;;;;;;;;;4951420;29;20051;-72
2020/12/15 08:15:22;;;;;;;30.48;14.65;;;;;;;;;;4949770;29;20058;-71
2020/12/15 08:17:50;;;;;;;19.48;9.55;;;;;;;;;;4934113;29;20070;-68
2020/12/15 08:20:22;;;;;;;8.35;4.70;;;;;;;;;;4949506;29;20070;-64
2020/12/15 08:22:48;;;;;;;7.60;5.88;;;;;;;;;;4936235;29;20051;-63
2020/12/15 08:25:16;;;;;;;7.05;4.53;;;;;;;;;;4908349;29;20047;-63
2020/12/15 08:27:50;;;;;;;9.52;4.50;;;;;;;;;;4923132;29;20439;-63
2020/12/15 08:30:18;;;;;;;6.55;4.25;;;;;;;;;;4932611;29;20051;-64
2020/12/15 08:32:49;;;;;;;7.38;4.78;;;;;;;;;;4920759;29;20062;-69
2020/12/15 08:35:25;;;;;;;6.93;4.60;;;;;;;;;;4932039;29;20058;-69
2020/12/15 08:37:57;;;;;;;7.68;4.88;;;;;;;;;;4936786;29;20060;-69
2020/12/15 08:40:24;;;;;;;10.18;4.32;;;;;;;;;;4937666;29;20409;-69
2020/12/15 08:42:53;;;;;;;6.97;4.95;;;;;;;;;;4936673;29;20503;-69
2020/12/15 08:45:25;;;;;;;7.63;4.80;;;;;;;;;;4922767;29;20062;-68
2020/12/15 08:47:56;;;;;;;6.88;4.53;;;;;;;;;;4937304;29;20135;-69
2020/12/15 08:50:26;;;;;;;5.45;4.43;;;;;;;;;;4929175;29;20059;-69
2020/12/15 08:53:06;;;;;;;7.60;4.78;;;;;;;;;;4945894;29;20048;-69
2020/12/15 08:55:33;;;;;;;7.43;4.38;;;;;;;;;;4944666;29;20051;-69
2020/12/15 08:58:00;;;;;;;9.32;5.18;;;;;;;;;;4940983;29;20058;-69
2020/12/15 09:00:26;;;;;;;7.90;5.03;;;;;;;;;;4927132;29;20065;-69
2020/12/15 09:03:15;;;;;;;9.45;6.03;;;;;;;;;;4936731;29;20082;-69
2020/12/15 09:05:45;;;;;;;11.52;6.88;;;;;;;;;;4953966;29;20483;-69
2020/12/15 09:08:11;;;;;;;9.57;6.38;;;;;;;;;;4953074;29;20039;-69
2020/12/15 09:10:38;;;;;;;11.63;6.60;;;;;;;;;;4952943;29;20051;-69
2020/12/15 09:13:04;;;;;;;10.15;6.03;;;;;;;;;;4954959;29;20055;-69
2020/12/15 09:15:44;;;;;;;9.82;5.80;;;;;;;;;;4954083;29;20059;-69
2020/12/15 09:18:12;;;;;;;8.73;5.22;;;;;;;;;;4955061;29;20058;-69
2020/12/15 09:20:38;;;;;;;8.85;5.43;;;;;;;;;;4954176;29;20148;-68
2020/12/15 09:25:38;;;;;;;8.90;5.38;;;;;;;;;;4991999;23;20524;-68
2020/12/15 09:28:04;;;;;;;11.68;5.53;;;;;;;;;;4994918;28;20064;-69
2020/12/15 09:30:30;;;;;;;10.35;6.03;;;;;;;;;;4996225;28;20046;-69
2020/12/15 09:32:56;;;;;;;11.07;6.25;;;;;;;;;;4996629;28;20054;-69
2020/12/15 09:35:22;;;;;;;10.43;5.53;;;;;;;;;;4995624;28;20060;-69
2020/12/15 09:37:49;;;;;;;9.55;5.13;;;;;;;;;;5012756;28;20053;-69
2020/12/15 09:40:15;;;;;;;7.00;5.40;;;;;;;;;;4996476;28;20076;-69
2020/12/15 09:42:44;;;;;;;11.65;6.10;;;;;;;;;;4996416;28;20105;-69
2020/12/15 09:45:11;;;;;;;7.03;5.35;;;;;;;;;;4996063;28;20046;-69
2020/12/15 09:47:41;;;;;;;8.30;5.18;;;;;;;;;;4995905;28;20046;-69
2020/12/15 09:50:09;;;;;;;9.98;6.20;;;;;;;;;;4996128;28;20656;-69
2020/12/15 09:52:35;;;;;;;9.23;5.93;;;;;;;;;;5013345;28;20045;-69
2020/12/15 09:55:06;;;;;;;8.52;5.20;;;;;;;;;;4996628;28;20082;-69
2020/12/15 09:57:35;;;;;;;7.57;4.90;;;;;;;;;;4979375;28;20053;-69
2020/12/15 10:00:03;;;;;;;9.02;4.63;;;;;;;;;;4996368;28;20056;-69
2020/12/15 10:02:29;;;;;;;9.38;5.35;;;;;;;;;;4995962;28;20062;-69
2020/12/15 10:04:56;;;;;;;8.18;4.97;;;;;;;;;;4996149;28;20045;-69
2020/12/15 10:07:22;;;;;;;6.28;4.55;;;;;;;;;;4995094;28;20049;-69
2020/12/15 10:09:49;;;;;;;6.10;4.80;;;;;;;;;;4996016;28;20523;-69
2020/12/15 10:12:15;;;;;;;7.00;4.63;;;;;;;;;;5003906;28;20052;-69
2020/12/15 10:14:41;;;;;;;10.05;4.88;;;;;;;;;;5020329;28;20110;-69
2020/12/15 10:17:07;;;;;;;9.23;5.30;;;;;;;;;;5015779;28;20088;-69
2020/12/15 10:19:34;;;;;;;9.32;5.22;;;;;;;;;;5004776;28;20084;-69
2020/12/15 10:22:00;;;;;;;8.05;4.90;;;;;;;;;;4988204;28;20082;-69
2020/12/15 10:24:27;;;;;;;10.60;5.38;;;;;;;;;;4995374;28;20507;-70
2020/12/15 10:26:53;;;;;;;10.95;5.30;;;;;;;;;;4994776;28;20057;-69
2020/12/15 10:29:19;;;;;;;8.50;5.68;;;;;;;;;;4995403;28;20054;-69
2020/12/15 10:31:49;;;;;;;6.32;4.90;;;;;;;;;;4995040;28;20270;-69
2020/12/15 10:34:15;;;;;;;11.52;5.93;;;;;;;;;;4995310;28;20128;-69
2020/12/15 10:36:41;;;;;;;9.93;5.38;;;;;;;;;;4993780;28;20058;-69
2020/12/15 10:39:07;;;;;;;11.88;6.05;;;;;;;;;;4995290;28;20058;-69
2020/12/15 10:41:37;;;;;;;15.63;7.15;;;;;;;;;;4994911;28;20489;-69
2020/12/15 10:44:03;;;;;;;12.10;6.75;;;;;;;;;;4995243;28;20430;-69
2020/12/15 10:46:30;;;;;;;10.23;5.75;;;;;;;;;;4994124;28;20378;-69
2020/12/15 10:48:56;;;;;;;14.50;5.50;;;;;;;;;;4995183;28;20112;-69
2020/12/15 10:51:25;;;;;;;11.82;5.20;;;;;;;;;;4988314;28;20046;-70
2020/12/15 10:53:51;;;;;;;9.35;5.05;;;;;;;;;;4984830;28;20495;-69
2020/12/15 10:56:20;;;;;;;10.45;5.22;;;;;;;;;;4982890;28;20053;-69
2020/12/15 10:58:46;;;;;;;9.82;5.40;;;;;;;;;;4980481;28;20054;-69
2020/12/15 11:01:12;;;;;;;9.93;5.20;;;;;;;;;;4980150;28;20053;-69
2020/12/15 11:03:41;;;;;;;9.90;4.93;;;;;;;;;;4979475;28;20148;-69
2020/12/15 11:06:07;;;;;;;7.20;4.85;;;;;;;;;;4982730;28;20050;-70
2020/12/15 11:08:33;;;;;;;10.20;4.68;;;;;;;;;;4977807;28;20754;-69
2020/12/15 11:11:00;;;;;;;7.63;4.97;;;;;;;;;;4997483;28;20129;-69
2020/12/15 11:13:26;;;;;;;6.38;4.60;;;;;;;;;;4978829;28;20141;-70
2020/12/15 11:15:52;;;;;;;7.90;4.50;;;;;;;;;;5005909;23;20057;-69
2020/12/15 11:18:19;;;;;;;7.93;4.60;;;;;;;;;;4972404;28;20440;-70
2020/12/15 11:20:46;;;;;;;9.73;5.20;;;;;;;;;;4969028;28;20504;-69
2020/12/15 11:23:13;;;;;;;8.25;5.13;;;;;;;;;;4972785;28;20062;-70
2020/12/15 11:25:39;;;;;;;7.40;4.72;;;;;;;;;;4971453;28;20635;-69
2020/12/15 11:28:05;;;;;;;7.90;4.97;;;;;;;;;;4972372;28;20053;-69
2020/12/15 11:30:32;;;;;;;8.48;5.50;;;;;;;;;;4971155;28;20050;-69
2020/12/15 11:32:59;;;;;;;10.15;5.38;;;;;;;;;;4972573;28;20485;-69
2020/12/15 11:35:25;;;;;;;6.43;4.45;;;;;;;;;;4971155;28;20077;-69
2020/12/15 11:37:51;;;;;;;8.95;5.53;;;;;;;;;;4972675;28;20065;-69
2020/12/15 11:40:18;;;;;;;8.70;5.53;;;;;;;;;;4972857;28;20125;-69
2020/12/15 11:42:44;;;;;;;7.40;5.15;;;;;;;;;;4971951;28;20057;-69
2020/12/15 11:45:10;;;;;;;13.50;8.45;;;;;;;;;;4972671;28;20047;-70
2020/12/15 11:47:37;;;;;;;6.50;4.90;;;;;;;;;;4971845;28;20050;-69
2020/12/15 11:50:05;;;;;;;7.97;5.22;;;;;;;;;;4956648;28;20158;-70
2020/12/15 11:52:31;;;;;;;7.63;5.30;;;;;;;;;;4971374;28;20057;-71
2020/12/15 11:55:06;;;;;;;6.75;4.95;;;;;;;;;;4965699;28;20525;-72
2020/12/15 11:57:37;;;;;;;10.80;4.68;;;;;;;;;;4971237;28;20051;-71
2020/12/15 12:00:05;;;;;;;7.95;5.60;;;;;;;;;;4972250;28;20055;-70
2020/12/15 12:02:31;;;;;;;7.43;5.53;;;;;;;;;;4972235;28;20046;-69
2020/12/15 12:04:58;;;;;;;8.93;4.97;;;;;;;;;;4972325;28;20046;-70
2020/12/15 12:07:24;;;;;;;10.88;5.75;;;;;;;;;;4970530;28;20061;-72
2020/12/15 12:09:50;;;;;;;12.80;6.28;;;;;;;;;;4971651;28;20057;-70
2020/12/15 12:12:16;;;;;;;10.02;6.65;;;;;;;;;;4971039;28;20058;-71
2020/12/15 12:14:43;;;;;;;9.82;5.65;;;;;;;;;;4972515;28;20057;-69
2020/12/15 12:17:19;;;;;;;9.32;5.70;;;;;;;;;;4969482;28;20516;-69
2020/12/15 12:19:45;;;;;;;8.75;6.10;;;;;;;;;;4971773;28;20089;-72
2020/12/15 12:22:12;;;;;;;7.95;5.47;;;;;;;;;;4973663;28;20077;-69
2020/12/15 12:24:39;;;;;;;5.95;5.15;;;;;;;;;;4973156;28;20058;-70
2020/12/15 12:27:05;;;;;;;9.38;5.18;;;;;;;;;;4973023;28;20069;-69
2020/12/15 12:29:31;;;;;;;7.90;5.25;;;;;;;;;;4973621;28;20047;-69
2020/12/15 12:31:58;;;;;;;8.77;5.50;;;;;;;;;;4973458;28;20062;-69
2020/12/15 12:34:24;;;;;;;8.95;5.10;;;;;;;;;;4975602;28;20046;-70
2020/12/15 12:36:51;;;;;;;7.22;4.88;;;;;;;;;;4974345;28;20050;-69
2020/12/15 12:39:17;;;;;;;8.65;5.20;;;;;;;;;;4975930;28;20054;-70
2020/12/15 12:41:43;;;;;;;10.30;5.90;;;;;;;;;;4975029;28;20047;-69
2020/12/15 12:44:14;;;;;;;7.20;5.63;;;;;;;;;;4976276;28;20043;-70
2020/12/15 12:46:40;;;;;;;7.38;4.93;;;;;;;;;;4974499;28;20054;-71
2020/12/15 12:49:07;;;;;;;6.93;4.93;;;;;;;;;;4972473;28;20137;-71
2020/12/15 12:51:33;;;;;;;7.70;4.55;;;;;;;;;;4973206;28;20104;-70
2020/12/15 12:54:00;;;;;;;6.93;4.90;;;;;;;;;;4975265;28;20097;-71
2020/12/15 12:56:26;;;;;;;13.45;5.18;;;;;;;;;;4974651;28;20448;-70
2020/12/15 12:58:52;;;;;;;7.95;5.30;;;;;;;;;;4975443;28;20046;-69
2020/12/15 13:01:22;;;;;;;9.45;6.03;;;;;;;;;;4975140;28;20081;-70
2020/12/15 13:03:48;;;;;;;12.38;7.22;;;;;;;;;;4988219;28;20085;-70
2020/12/15 13:06:15;;;;;;;9.80;5.85;;;;;;;;;;4987717;28;20046;-69
2020/12/15 13:08:42;;;;;;;7.88;4.60;;;;;;;;;;4973713;28;20578;-71
2020/12/15 13:11:24;;;;;;;9.40;5.38;;;;;;;;;;4976340;28;20493;-71
2020/12/15 13:13:51;;;;;;;8.57;5.30;;;;;;;;;;4988842;28;20524;-71
2020/12/15 13:16:17;;;;;;;6.45;4.55;;;;;;;;;;4972355;28;20042;-70
2020/12/15 13:18:44;;;;;;;9.10;4.88;;;;;;;;;;4975001;28;20049;-71
2020/12/15 13:21:14;;;;;;;7.80;4.93;;;;;;;;;;4971620;28;20042;-70
2020/12/15 13:23:40;;;;;;;9.02;4.82;;;;;;;;;;4966108;28;20050;-72
2020/12/15 13:26:11;;;;;;;5.30;4.65;;;;;;;;;;4990954;28;20046;-72
2020/12/15 13:28:38;;;;;;;6.25;4.47;;;;;;;;;;4975280;28;20057;-73
2020/12/15 13:31:04;;;;;;;7.00;4.75;;;;;;;;;;4974825;28;20054;-71
2020/12/15 13:33:30;;;;;;;8.40;4.70;;;;;;;;;;4974450;28;20462;-71
2020/12/15 13:35:57;;;;;;;9.13;5.32;;;;;;;;;;4971163;28;20038;-72
2020/12/15 13:38:24;;;;;;;9.10;5.93;;;;;;;;;;4974564;28;20251;-71
2020/12/15 13:40:50;;;;;;;7.05;5.05;;;;;;;;;;4974832;28;20057;-69
2020/12/15 13:43:16;;;;;;;8.48;5.13;;;;;;;;;;4989026;28;20051;-71
2020/12/15 13:45:42;;;;;;;7.70;4.75;;;;;;;;;;4973525;28;20489;-73
2020/12/15 13:48:15;;;;;;;8.57;5.35;;;;;;;;;;4975736;28;20050;-70
2020/12/15 13:50:41;;;;;;;8.18;5.05;;;;;;;;;;4974353;28;20058;-72
2020/12/15 13:53:07;;;;;;;9.82;4.60;;;;;;;;;;4974500;28;20066;-68
2020/12/15 13:55:33;;;;;;;8.57;5.18;;;;;;;;;;4984973;28;20058;-68
2020/12/15 13:58:00;;;;;;;8.68;5.80;;;;;;;;;;5000102;28;20149;-71
2020/12/15 14:00:26;;;;;;;8.68;5.47;;;;;;;;;;4995887;28;20046;-69
2020/12/15 14:02:52;;;;;;;9.27;5.68;;;;;;;;;;4955441;28;20396;-69
2020/12/15 14:05:18;;;;;;;11.18;5.30;;;;;;;;;;4972830;28;20058;-70
2020/12/15 14:07:44;;;;;;;8.32;4.95;;;;;;;;;;4974022;28;20069;-76
2020/12/15 14:10:11;;;;;;;7.50;4.95;;;;;;;;;;4974404;28;20477;-70
2020/12/15 14:12:37;;;;;;;7.32;5.00;;;;;;;;;;4990756;28;20043;-69
2020/12/15 14:15:03;;;;;;;7.25;5.03;;;;;;;;;;4974119;28;20082;-70
2020/12/15 14:17:29;;;;;;;7.07;4.93;;;;;;;;;;4973153;28;20065;-71
2020/12/15 14:19:56;;;;;;;7.50;4.70;;;;;;;;;;4974340;28;20050;-70
2020/12/15 14:22:22;;;;;;;7.68;4.90;;;;;;;;;;4973452;28;20046;-68
2020/12/15 14:24:58;;;;;;;9.73;5.13;;;;;;;;;;4972406;28;20050;-69
2020/12/15 14:27:24;;;;;;;5.70;4.88;;;;;;;;;;4973380;28;20046;-71
2020/12/15 14:29:50;;;;;;;10.07;6.00;;;;;;;;;;4974163;28;20068;-70
2020/12/15 14:32:17;;;;;;;9.73;4.80;;;;;;;;;;4974009;28;20489;-71
2020/12/15 14:34:43;;;;;;;7.20;4.95;;;;;;;;;;4972497;28;20046;-71
2020/12/15 14:37:09;;;;;;;9.30;5.03;;;;;;;;;;4990862;28;20053;-71
2020/12/15 14:39:35;;;;;;;7.30;4.95;;;;;;;;;;4973570;28;20045;-72
2020/12/15 14:42:03;;;;;;;8.95;5.35;;;;;;;;;;4973366;28;20042;-70
2020/12/15 14:44:30;;;;;;;6.65;4.57;;;;;;;;;;4973251;28;20062;-69
2020/12/15 14:46:56;;;;;;;8.57;4.88;;;;;;;;;;4973497;28;20089;-70
2020/12/15 14:49:23;;;;;;;6.32;4.93;;;;;;;;;;4973560;28;20058;-69
2020/12/15 14:51:50;;;;;;;6.72;4.95;;;;;;;;;;4973055;28;20085;-70
2020/12/15 14:54:18;;;;;;;7.50;5.07;;;;;;;;;;4972951;28;20511;-69